sensor_id;sensor_type;location;lat;lon;timestamp;temperature;humidity
10411;DHT22;5251;52.112;8.606;2023-06-04T00:01:26;11.60;77.20
10411;DHT22;5251;52.112;8.606;2023-06-04T00:03:51;11.60;77.50
10411;DHT22;5251;52.112;8.606;2023-06-04T00:06:18;11.60;77.30
10411;DHT22;5251;52.112;8.606;2023-06-04T00:08:43;11.60;77.00
10411;DHT22;5251;52.112;8.606;2023-06-04T00:11:09;11.50;76.40
10411;DHT22;5251;52.112;8.606;2023-06-04T00:13:35;11.50;76.50
10411;DHT22;5251;52.112;8.606;2023-06-04T00:16:00;11.40;76.60
10411;DHT22;5251;52.112;8.606;2023-06-04T00:18:26;11.40;76.70
10411;DHT22;5251;52.112;8.606;2023-06-04T00:20:52;11.50;76.80
10411;DHT22;5251;52.112;8.606;2023-06-04T00:23:17;11.50;76.90
10411;DHT22;5251;52.112;8.606;2023-06-04T00:25:43;11.50;77.20
10411;DHT22;5251;52.112;8.606;2023-06-04T00:28:08;11.50;77.10
10411;DHT22;5251;52.112;8.606;2023-06-04T00:30:34;11.40;76.80
10411;DHT22;5251;52.112;8.606;2023-06-04T00:33:01;11.40;77.00
10411;DHT22;5251;52.112;8.606;2023-06-04T00:35:26;11.40;76.30
10411;DHT22;5251;52.112;8.606;2023-06-04T00:37:52;11.40;76.70
10411;DHT22;5251;52.112;8.606;2023-06-04T00:40:17;11.40;77.20
10411;DHT22;5251;52.112;8.606;2023-06-04T00:42:44;11.40;77.40
10411;DHT22;5251;52.112;8.606;2023-06-04T00:45:10;11.40;77.80
10411;DHT22;5251;52.112;8.606;2023-06-04T00:47:36;11.40;77.80
10411;DHT22;5251;52.112;8.606;2023-06-04T00:50:02;11.40;78.20
10411;DHT22;5251;52.112;8.606;2023-06-04T00:52:28;11.40;78.30
10411;DHT22;5251;52.112;8.606;2023-06-04T00:54:53;11.30;78.50
10411;DHT22;5251;52.112;8.606;2023-06-04T00:57:23;11.30;78.70
10411;DHT22;5251;52.112;8.606;2023-06-04T00:59:49;11.30;79.20
10411;DHT22;5251;52.112;8.606;2023-06-04T01:02:23;11.30;79.20
10411;DHT22;5251;52.112;8.606;2023-06-04T01:04:58;11.30;79.40
10411;DHT22;5251;52.112;8.606;2023-06-04T01:07:27;11.30;79.80
10411;DHT22;5251;52.112;8.606;2023-06-04T01:09:56;11.20;79.90
10411;DHT22;5251;52.112;8.606;2023-06-04T01:12:22;11.20;79.70
10411;DHT22;5251;52.112;8.606;2023-06-04T01:14:47;11.20;80.00
10411;DHT22;5251;52.112;8.606;2023-06-04T01:17:20;11.20;79.30
10411;DHT22;5251;52.112;8.606;2023-06-04T01:19:57;11.10;79.60
10411;DHT22;5251;52.112;8.606;2023-06-04T01:25:24;11.10;80.10
10411;DHT22;5251;52.112;8.606;2023-06-04T01:27:54;11.10;80.40
10411;DHT22;5251;52.112;8.606;2023-06-04T01:30:30;11.00;80.30
10411;DHT22;5251;52.112;8.606;2023-06-04T01:32:57;11.00;80.30
10411;DHT22;5251;52.112;8.606;2023-06-04T01:35:23;11.00;80.50
10411;DHT22;5251;52.112;8.606;2023-06-04T01:37:49;10.90;81.00
10411;DHT22;5251;52.112;8.606;2023-06-04T01:40:15;10.90;81.30
10411;DHT22;5251;52.112;8.606;2023-06-04T01:42:42;10.90;81.30
10411;DHT22;5251;52.112;8.606;2023-06-04T01:45:08;10.90;81.60
10411;DHT22;5251;52.112;8.606;2023-06-04T01:47:33;10.80;81.80
10411;DHT22;5251;52.112;8.606;2023-06-04T01:50:06;10.80;82.10
10411;DHT22;5251;52.112;8.606;2023-06-04T01:52:36;10.80;82.10
10411;DHT22;5251;52.112;8.606;2023-06-04T01:55:06;10.70;81.70
10411;DHT22;5251;52.112;8.606;2023-06-04T01:57:32;10.70;81.90
10411;DHT22;5251;52.112;8.606;2023-06-04T01:59:58;10.70;81.90
10411;DHT22;5251;52.112;8.606;2023-06-04T02:02:24;10.70;81.90
10411;DHT22;5251;52.112;8.606;2023-06-04T02:04:50;10.60;82.60
10411;DHT22;5251;52.112;8.606;2023-06-04T02:07:18;10.70;82.00
10411;DHT22;5251;52.112;8.606;2023-06-04T02:09:46;10.60;82.20
10411;DHT22;5251;52.112;8.606;2023-06-04T02:12:11;10.60;82.10
10411;DHT22;5251;52.112;8.606;2023-06-04T02:14:37;10.60;82.20
10411;DHT22;5251;52.112;8.606;2023-06-04T02:17:03;10.50;82.10
10411;DHT22;5251;52.112;8.606;2023-06-04T02:19:30;10.50;82.30
10411;DHT22;5251;52.112;8.606;2023-06-04T02:21:59;10.40;82.50
10411;DHT22;5251;52.112;8.606;2023-06-04T02:24:24;10.50;82.70
10411;DHT22;5251;52.112;8.606;2023-06-04T02:26:50;10.40;82.80
10411;DHT22;5251;52.112;8.606;2023-06-04T02:29:15;10.40;83.20
10411;DHT22;5251;52.112;8.606;2023-06-04T02:31:41;10.40;83.50
10411;DHT22;5251;52.112;8.606;2023-06-04T02:34:06;10.30;83.70
10411;DHT22;5251;52.112;8.606;2023-06-04T02:36:32;10.30;84.00
10411;DHT22;5251;52.112;8.606;2023-06-04T02:38:58;10.30;84.00
10411;DHT22;5251;52.112;8.606;2023-06-04T02:41:23;10.30;84.10
10411;DHT22;5251;52.112;8.606;2023-06-04T02:43:49;10.30;84.30
10411;DHT22;5251;52.112;8.606;2023-06-04T02:46:15;10.30;84.10
10411;DHT22;5251;52.112;8.606;2023-06-04T02:48:40;10.30;84.30
10411;DHT22;5251;52.112;8.606;2023-06-04T02:51:06;10.20;84.20
10411;DHT22;5251;52.112;8.606;2023-06-04T02:53:35;10.20;84.10
10411;DHT22;5251;52.112;8.606;2023-06-04T02:56:01;10.20;84.90
10411;DHT22;5251;52.112;8.606;2023-06-04T02:58:27;10.10;84.00
10411;DHT22;5251;52.112;8.606;2023-06-04T03:00:54;10.10;84.20
10411;DHT22;5251;52.112;8.606;2023-06-04T03:03:21;10.10;84.40
10411;DHT22;5251;52.112;8.606;2023-06-04T03:05:47;10.10;84.50
10411;DHT22;5251;52.112;8.606;2023-06-04T03:08:13;10.10;84.50
10411;DHT22;5251;52.112;8.606;2023-06-04T03:10:38;10.10;84.40
10411;DHT22;5251;52.112;8.606;2023-06-04T03:13:04;10.00;84.60
10411;DHT22;5251;52.112;8.606;2023-06-04T03:15:30;10.00;84.70
10411;DHT22;5251;52.112;8.606;2023-06-04T03:17:55;10.00;84.90
10411;DHT22;5251;52.112;8.606;2023-06-04T03:20:22;9.90;86.20
10411;DHT22;5251;52.112;8.606;2023-06-04T03:22:50;9.90;86.20
10411;DHT22;5251;52.112;8.606;2023-06-04T03:25:16;9.90;86.20
10411;DHT22;5251;52.112;8.606;2023-06-04T03:27:41;9.90;86.20
10411;DHT22;5251;52.112;8.606;2023-06-04T03:30:07;9.90;86.20
10411;DHT22;5251;52.112;8.606;2023-06-04T03:32:33;9.90;86.20
10411;DHT22;5251;52.112;8.606;2023-06-04T03:35:00;9.90;86.90
10411;DHT22;5251;52.112;8.606;2023-06-04T03:37:25;9.90;87.10
10411;DHT22;5251;52.112;8.606;2023-06-04T03:39:52;9.90;87.20
10411;DHT22;5251;52.112;8.606;2023-06-04T03:42:17;9.90;87.50
10411;DHT22;5251;52.112;8.606;2023-06-04T03:44:44;9.90;87.70
10411;DHT22;5251;52.112;8.606;2023-06-04T03:47:09;9.90;87.90
10411;DHT22;5251;52.112;8.606;2023-06-04T03:49:35;9.90;88.10
10411;DHT22;5251;52.112;8.606;2023-06-04T03:52:00;9.90;88.10
10411;DHT22;5251;52.112;8.606;2023-06-04T03:54:26;10.00;87.10
10411;DHT22;5251;52.112;8.606;2023-06-04T03:56:52;10.00;87.00
10411;DHT22;5251;52.112;8.606;2023-06-04T03:59:17;10.00;87.00
10411;DHT22;5251;52.112;8.606;2023-06-04T04:01:43;10.00;87.20
10411;DHT22;5251;52.112;8.606;2023-06-04T04:04:09;10.10;87.50
10411;DHT22;5251;52.112;8.606;2023-06-04T04:06:35;10.10;87.50
10411;DHT22;5251;52.112;8.606;2023-06-04T04:09:02;10.10;87.60
10411;DHT22;5251;52.112;8.606;2023-06-04T04:11:28;10.20;87.80
10411;DHT22;5251;52.112;8.606;2023-06-04T04:13:53;10.20;88.00
10411;DHT22;5251;52.112;8.606;2023-06-04T04:16:19;10.30;88.00
10411;DHT22;5251;52.112;8.606;2023-06-04T04:18:45;10.40;88.10
10411;DHT22;5251;52.112;8.606;2023-06-04T04:21:11;10.40;88.10
10411;DHT22;5251;52.112;8.606;2023-06-04T04:23:38;10.50;88.30
10411;DHT22;5251;52.112;8.606;2023-06-04T04:26:08;10.50;88.30
10411;DHT22;5251;52.112;8.606;2023-06-04T04:28:33;10.60;88.40
10411;DHT22;5251;52.112;8.606;2023-06-04T04:31:00;10.60;88.30
10411;DHT22;5251;52.112;8.606;2023-06-04T04:33:28;10.70;88.60
10411;DHT22;5251;52.112;8.606;2023-06-04T04:35:58;10.80;88.80
10411;DHT22;5251;52.112;8.606;2023-06-04T04:38:25;10.80;88.80
10411;DHT22;5251;52.112;8.606;2023-06-04T04:40:51;10.90;88.80
10411;DHT22;5251;52.112;8.606;2023-06-04T04:43:34;11.00;88.80
10411;DHT22;5251;52.112;8.606;2023-06-04T04:46:00;11.00;88.50
10411;DHT22;5251;52.112;8.606;2023-06-04T04:48:26;11.20;88.50
10411;DHT22;5251;52.112;8.606;2023-06-04T04:50:52;11.30;88.40
10411;DHT22;5251;52.112;8.606;2023-06-04T04:53:18;11.40;88.50
10411;DHT22;5251;52.112;8.606;2023-06-04T04:55:44;11.50;88.60
10411;DHT22;5251;52.112;8.606;2023-06-04T04:58:09;11.60;88.80
10411;DHT22;5251;52.112;8.606;2023-06-04T05:00:35;11.60;88.50
10411;DHT22;5251;52.112;8.606;2023-06-04T05:03:00;11.70;88.50
10411;DHT22;5251;52.112;8.606;2023-06-04T05:05:26;11.80;88.40
10411;DHT22;5251;52.112;8.606;2023-06-04T05:07:52;11.90;88.30
10411;DHT22;5251;52.112;8.606;2023-06-04T05:10:17;12.10;88.30
10411;DHT22;5251;52.112;8.606;2023-06-04T05:12:53;12.30;89.00
10411;DHT22;5251;52.112;8.606;2023-06-04T05:15:20;12.60;89.30
10411;DHT22;5251;52.112;8.606;2023-06-04T05:17:46;13.00;88.30
10411;DHT22;5251;52.112;8.606;2023-06-04T05:20:13;13.50;87.50
10411;DHT22;5251;52.112;8.606;2023-06-04T05:22:39;14.00;87.10
10411;DHT22;5251;52.112;8.606;2023-06-04T05:25:05;14.70;85.50
10411;DHT22;5251;52.112;8.606;2023-06-04T05:27:32;15.30;85.30
10411;DHT22;5251;52.112;8.606;2023-06-04T05:29:58;16.10;84.40
10411;DHT22;5251;52.112;8.606;2023-06-04T05:32:24;16.80;80.50
10411;DHT22;5251;52.112;8.606;2023-06-04T05:34:56;17.50;78.60
10411;DHT22;5251;52.112;8.606;2023-06-04T05:37:23;18.10;76.20
10411;DHT22;5251;52.112;8.606;2023-06-04T05:39:57;18.70;74.50
10411;DHT22;5251;52.112;8.606;2023-06-04T05:42:23;19.20;73.00
10411;DHT22;5251;52.112;8.606;2023-06-04T05:44:49;19.50;70.50
10411;DHT22;5251;52.112;8.606;2023-06-04T05:47:16;19.70;69.30
10411;DHT22;5251;52.112;8.606;2023-06-04T05:49:42;19.80;68.70
10411;DHT22;5251;52.112;8.606;2023-06-04T05:52:07;19.90;68.10
10411;DHT22;5251;52.112;8.606;2023-06-04T05:54:33;19.80;67.50
10411;DHT22;5251;52.112;8.606;2023-06-04T05:56:59;19.70;66.50
10411;DHT22;5251;52.112;8.606;2023-06-04T05:59:24;19.70;66.40
10411;DHT22;5251;52.112;8.606;2023-06-04T06:01:50;19.40;64.00
10411;DHT22;5251;52.112;8.606;2023-06-04T06:04:16;19.30;64.00
10411;DHT22;5251;52.112;8.606;2023-06-04T06:06:42;19.10;63.50
10411;DHT22;5251;52.112;8.606;2023-06-04T06:09:10;19.00;64.40
10411;DHT22;5251;52.112;8.606;2023-06-04T06:11:36;18.80;64.70
10411;DHT22;5251;52.112;8.606;2023-06-04T06:14:02;18.60;65.10
10411;DHT22;5251;52.112;8.606;2023-06-04T06:16:27;18.40;63.90
10411;DHT22;5251;52.112;8.606;2023-06-04T06:18:53;18.30;65.30
10411;DHT22;5251;52.112;8.606;2023-06-04T06:21:19;18.20;65.30
10411;DHT22;5251;52.112;8.606;2023-06-04T06:23:45;18.10;66.60
10411;DHT22;5251;52.112;8.606;2023-06-04T06:26:11;18.00;66.50
10411;DHT22;5251;52.112;8.606;2023-06-04T06:28:37;18.00;65.10
10411;DHT22;5251;52.112;8.606;2023-06-04T06:31:03;17.90;64.60
10411;DHT22;5251;52.112;8.606;2023-06-04T06:33:28;17.80;64.90
10411;DHT22;5251;52.112;8.606;2023-06-04T06:35:54;17.80;65.10
10411;DHT22;5251;52.112;8.606;2023-06-04T06:38:19;17.80;65.30
10411;DHT22;5251;52.112;8.606;2023-06-04T06:40:45;17.80;65.20
10411;DHT22;5251;52.112;8.606;2023-06-04T06:43:11;17.80;65.50
10411;DHT22;5251;52.112;8.606;2023-06-04T06:45:37;17.80;65.20
10411;DHT22;5251;52.112;8.606;2023-06-04T06:48:02;17.80;65.00
10411;DHT22;5251;52.112;8.606;2023-06-04T06:50:29;17.90;66.10
10411;DHT22;5251;52.112;8.606;2023-06-04T06:52:55;17.90;66.20
10411;DHT22;5251;52.112;8.606;2023-06-04T06:55:20;17.90;64.90
10411;DHT22;5251;52.112;8.606;2023-06-04T06:57:46;18.00;64.50
10411;DHT22;5251;52.112;8.606;2023-06-04T07:00:12;18.00;64.70
10411;DHT22;5251;52.112;8.606;2023-06-04T07:02:38;18.10;65.20
10411;DHT22;5251;52.112;8.606;2023-06-04T07:05:04;18.10;65.20
10411;DHT22;5251;52.112;8.606;2023-06-04T07:07:29;18.20;64.50
10411;DHT22;5251;52.112;8.606;2023-06-04T07:09:55;18.30;65.30
10411;DHT22;5251;52.112;8.606;2023-06-04T07:12:20;18.30;65.10
10411;DHT22;5251;52.112;8.606;2023-06-04T07:14:46;18.40;65.20
10411;DHT22;5251;52.112;8.606;2023-06-04T07:17:12;18.50;65.50
10411;DHT22;5251;52.112;8.606;2023-06-04T07:19:37;18.60;65.40
10411;DHT22;5251;52.112;8.606;2023-06-04T07:22:03;18.70;65.50
10411;DHT22;5251;52.112;8.606;2023-06-04T07:24:29;18.80;64.20
10411;DHT22;5251;52.112;8.606;2023-06-04T07:26:54;18.90;64.90
10411;DHT22;5251;52.112;8.606;2023-06-04T07:29:20;18.90;64.20
10411;DHT22;5251;52.112;8.606;2023-06-04T07:31:46;19.00;65.90
10411;DHT22;5251;52.112;8.606;2023-06-04T07:34:13;19.10;66.30
10411;DHT22;5251;52.112;8.606;2023-06-04T07:36:38;19.20;64.40
10411;DHT22;5251;52.112;8.606;2023-06-04T07:39:04;19.30;64.20
10411;DHT22;5251;52.112;8.606;2023-06-04T07:41:30;19.40;65.80
10411;DHT22;5251;52.112;8.606;2023-06-04T07:43:55;19.50;63.70
10411;DHT22;5251;52.112;8.606;2023-06-04T07:46:21;19.60;64.40
10411;DHT22;5251;52.112;8.606;2023-06-04T07:48:47;19.70;64.50
10411;DHT22;5251;52.112;8.606;2023-06-04T07:51:13;19.80;64.00
10411;DHT22;5251;52.112;8.606;2023-06-04T07:53:39;19.90;63.50
10411;DHT22;5251;52.112;8.606;2023-06-04T07:56:05;20.00;60.20
10411;DHT22;5251;52.112;8.606;2023-06-04T07:58:31;20.10;60.30
10411;DHT22;5251;52.112;8.606;2023-06-04T08:00:56;20.20;61.30
10411;DHT22;5251;52.112;8.606;2023-06-04T08:03:22;20.20;59.50
10411;DHT22;5251;52.112;8.606;2023-06-04T08:05:48;20.30;61.50
10411;DHT22;5251;52.112;8.606;2023-06-04T08:08:14;20.40;61.10
10411;DHT22;5251;52.112;8.606;2023-06-04T08:10:40;20.50;62.10
10411;DHT22;5251;52.112;8.606;2023-06-04T08:13:06;20.60;63.00
10411;DHT22;5251;52.112;8.606;2023-06-04T08:15:31;20.80;62.60
10411;DHT22;5251;52.112;8.606;2023-06-04T08:17:57;20.90;59.70
10411;DHT22;5251;52.112;8.606;2023-06-04T08:20:23;21.00;60.20
10411;DHT22;5251;52.112;8.606;2023-06-04T08:22:49;21.00;59.40
10411;DHT22;5251;52.112;8.606;2023-06-04T08:25:14;21.10;59.30
10411;DHT22;5251;52.112;8.606;2023-06-04T08:27:41;21.20;58.00
10411;DHT22;5251;52.112;8.606;2023-06-04T08:30:08;21.30;57.40
10411;DHT22;5251;52.112;8.606;2023-06-04T08:32:34;21.40;58.10
10411;DHT22;5251;52.112;8.606;2023-06-04T08:35:00;21.50;56.40
10411;DHT22;5251;52.112;8.606;2023-06-04T08:37:25;21.50;54.60
10411;DHT22;5251;52.112;8.606;2023-06-04T08:39:51;21.60;56.30
10411;DHT22;5251;52.112;8.606;2023-06-04T08:42:29;21.60;55.70
10411;DHT22;5251;52.112;8.606;2023-06-04T08:44:57;21.70;55.10
10411;DHT22;5251;52.112;8.606;2023-06-04T08:47:24;21.80;55.10
10411;DHT22;5251;52.112;8.606;2023-06-04T08:49:52;21.80;55.00
10411;DHT22;5251;52.112;8.606;2023-06-04T08:52:18;21.90;55.60
10411;DHT22;5251;52.112;8.606;2023-06-04T08:54:51;22.00;56.60
10411;DHT22;5251;52.112;8.606;2023-06-04T08:57:21;22.10;54.10
10411;DHT22;5251;52.112;8.606;2023-06-04T08:59:47;22.10;52.60
10411;DHT22;5251;52.112;8.606;2023-06-04T09:02:17;22.10;53.70
10411;DHT22;5251;52.112;8.606;2023-06-04T09:04:43;22.20;54.30
10411;DHT22;5251;52.112;8.606;2023-06-04T09:07:12;22.30;53.10
10411;DHT22;5251;52.112;8.606;2023-06-04T09:09:39;22.30;51.80
10411;DHT22;5251;52.112;8.606;2023-06-04T09:12:09;22.40;52.00
10411;DHT22;5251;52.112;8.606;2023-06-04T09:14:35;22.40;54.00
10411;DHT22;5251;52.112;8.606;2023-06-04T09:17:01;22.50;52.90
10411;DHT22;5251;52.112;8.606;2023-06-04T09:19:26;22.50;51.30
10411;DHT22;5251;52.112;8.606;2023-06-04T09:22:01;22.50;51.00
10411;DHT22;5251;52.112;8.606;2023-06-04T09:25:02;22.50;49.30
10411;DHT22;5251;52.112;8.606;2023-06-04T09:27:37;22.60;50.10
10411;DHT22;5251;52.112;8.606;2023-06-04T09:30:03;22.60;50.60
10411;DHT22;5251;52.112;8.606;2023-06-04T09:32:30;22.60;51.70
10411;DHT22;5251;52.112;8.606;2023-06-04T09:35:08;22.70;50.50
10411;DHT22;5251;52.112;8.606;2023-06-04T09:37:37;22.70;51.20
10411;DHT22;5251;52.112;8.606;2023-06-04T09:40:03;22.80;50.80
10411;DHT22;5251;52.112;8.606;2023-06-04T09:42:30;22.90;51.30
10411;DHT22;5251;52.112;8.606;2023-06-04T09:45:06;22.90;50.20
10411;DHT22;5251;52.112;8.606;2023-06-04T09:47:43;23.00;47.80
10411;DHT22;5251;52.112;8.606;2023-06-04T09:50:11;23.10;49.50
10411;DHT22;5251;52.112;8.606;2023-06-04T09:52:37;23.10;49.10
10411;DHT22;5251;52.112;8.606;2023-06-04T09:55:15;23.20;47.20
10411;DHT22;5251;52.112;8.606;2023-06-04T09:57:46;23.20;49.00
10411;DHT22;5251;52.112;8.606;2023-06-04T10:00:16;23.30;50.00
10411;DHT22;5251;52.112;8.606;2023-06-04T10:02:43;23.30;47.70
10411;DHT22;5251;52.112;8.606;2023-06-04T10:05:11;23.40;47.20
10411;DHT22;5251;52.112;8.606;2023-06-04T10:07:43;23.50;50.30
10411;DHT22;5251;52.112;8.606;2023-06-04T10:10:14;23.50;49.00
10411;DHT22;5251;52.112;8.606;2023-06-04T10:12:41;23.60;49.30
10411;DHT22;5251;52.112;8.606;2023-06-04T10:15:12;23.60;47.70
10411;DHT22;5251;52.112;8.606;2023-06-04T10:17:39;23.60;49.20
10411;DHT22;5251;52.112;8.606;2023-06-04T10:20:08;23.60;49.10
10411;DHT22;5251;52.112;8.606;2023-06-04T10:22:35;23.60;46.70
10411;DHT22;5251;52.112;8.606;2023-06-04T10:25:01;23.70;47.50
10411;DHT22;5251;52.112;8.606;2023-06-04T10:27:30;23.70;46.50
10411;DHT22;5251;52.112;8.606;2023-06-04T10:29:56;23.70;47.00
10411;DHT22;5251;52.112;8.606;2023-06-04T10:32:22;23.70;48.00
10411;DHT22;5251;52.112;8.606;2023-06-04T10:34:51;23.70;47.50
10411;DHT22;5251;52.112;8.606;2023-06-04T10:37:20;23.80;45.90
10411;DHT22;5251;52.112;8.606;2023-06-04T10:39:54;23.80;48.60
10411;DHT22;5251;52.112;8.606;2023-06-04T10:42:21;23.80;47.70
10411;DHT22;5251;52.112;8.606;2023-06-04T10:44:49;23.90;47.70
10411;DHT22;5251;52.112;8.606;2023-06-04T10:47:28;23.90;47.90
10411;DHT22;5251;52.112;8.606;2023-06-04T10:50:12;23.80;47.80
10411;DHT22;5251;52.112;8.606;2023-06-04T10:52:53;23.80;47.60
10411;DHT22;5251;52.112;8.606;2023-06-04T10:55:19;23.80;48.90
10411;DHT22;5251;52.112;8.606;2023-06-04T10:57:55;23.80;49.10
10411;DHT22;5251;52.112;8.606;2023-06-04T11:00:21;23.80;48.80
10411;DHT22;5251;52.112;8.606;2023-06-04T11:02:51;23.80;48.40
10411;DHT22;5251;52.112;8.606;2023-06-04T11:05:18;23.90;49.60
10411;DHT22;5251;52.112;8.606;2023-06-04T11:07:45;23.90;48.50
10411;DHT22;5251;52.112;8.606;2023-06-04T11:10:12;23.90;47.60
10411;DHT22;5251;52.112;8.606;2023-06-04T11:12:49;23.90;47.10
10411;DHT22;5251;52.112;8.606;2023-06-04T11:15:18;23.90;48.30
10411;DHT22;5251;52.112;8.606;2023-06-04T11:20:17;23.90;46.90
10411;DHT22;5251;52.112;8.606;2023-06-04T11:22:54;23.90;46.50
10411;DHT22;5251;52.112;8.606;2023-06-04T11:25:20;23.90;45.40
10411;DHT22;5251;52.112;8.606;2023-06-04T11:27:48;23.90;46.40
10411;DHT22;5251;52.112;8.606;2023-06-04T11:30:14;23.90;45.40
10411;DHT22;5251;52.112;8.606;2023-06-04T11:32:40;23.80;46.10
10411;DHT22;5251;52.112;8.606;2023-06-04T11:35:05;23.80;47.50
10411;DHT22;5251;52.112;8.606;2023-06-04T11:37:34;23.80;46.10
10411;DHT22;5251;52.112;8.606;2023-06-04T11:40:01;23.80;48.00
10411;DHT22;5251;52.112;8.606;2023-06-04T11:42:28;23.80;47.50
10411;DHT22;5251;52.112;8.606;2023-06-04T11:44:56;23.80;46.10
10411;DHT22;5251;52.112;8.606;2023-06-04T11:47:21;23.80;45.40
10411;DHT22;5251;52.112;8.606;2023-06-04T11:49:48;23.80;45.90
10411;DHT22;5251;52.112;8.606;2023-06-04T11:52:14;23.80;45.50
10411;DHT22;5251;52.112;8.606;2023-06-04T11:54:39;23.80;43.60
10411;DHT22;5251;52.112;8.606;2023-06-04T11:57:06;23.80;46.90
10411;DHT22;5251;52.112;8.606;2023-06-04T11:59:32;23.90;46.30
10411;DHT22;5251;52.112;8.606;2023-06-04T12:01:58;23.90;47.80
10411;DHT22;5251;52.112;8.606;2023-06-04T12:04:23;23.90;47.70
10411;DHT22;5251;52.112;8.606;2023-06-04T12:06:57;24.00;45.80
10411;DHT22;5251;52.112;8.606;2023-06-04T12:09:25;24.00;46.90
10411;DHT22;5251;52.112;8.606;2023-06-04T12:12:01;24.00;46.00
10411;DHT22;5251;52.112;8.606;2023-06-04T12:14:27;24.10;46.40
10411;DHT22;5251;52.112;8.606;2023-06-04T12:17:05;24.00;44.50
10411;DHT22;5251;52.112;8.606;2023-06-04T12:19:31;24.10;45.30
10411;DHT22;5251;52.112;8.606;2023-06-04T12:22:06;24.10;46.80
10411;DHT22;5251;52.112;8.606;2023-06-04T12:24:33;24.10;46.10
10411;DHT22;5251;52.112;8.606;2023-06-04T12:27:07;24.10;44.40
10411;DHT22;5251;52.112;8.606;2023-06-04T12:29:33;24.20;43.90
10411;DHT22;5251;52.112;8.606;2023-06-04T12:32:10;24.10;45.30
10411;DHT22;5251;52.112;8.606;2023-06-04T12:34:42;24.10;42.30
10411;DHT22;5251;52.112;8.606;2023-06-04T12:37:08;24.10;42.20
10411;DHT22;5251;52.112;8.606;2023-06-04T12:39:34;24.20;43.50
10411;DHT22;5251;52.112;8.606;2023-06-04T12:42:02;24.20;43.70
10411;DHT22;5251;52.112;8.606;2023-06-04T12:44:28;24.20;46.20
10411;DHT22;5251;52.112;8.606;2023-06-04T12:46:53;24.20;46.50
10411;DHT22;5251;52.112;8.606;2023-06-04T12:49:19;24.20;46.90
10411;DHT22;5251;52.112;8.606;2023-06-04T12:51:45;24.30;44.40
10411;DHT22;5251;52.112;8.606;2023-06-04T12:54:10;24.30;43.10
10411;DHT22;5251;52.112;8.606;2023-06-04T12:56:36;24.30;43.70
10411;DHT22;5251;52.112;8.606;2023-06-04T12:59:01;24.40;43.80
10411;DHT22;5251;52.112;8.606;2023-06-04T13:01:27;24.40;43.90
10411;DHT22;5251;52.112;8.606;2023-06-04T13:03:53;24.30;43.60
10411;DHT22;5251;52.112;8.606;2023-06-04T13:06:20;24.40;43.80
10411;DHT22;5251;52.112;8.606;2023-06-04T13:08:46;24.40;43.40
10411;DHT22;5251;52.112;8.606;2023-06-04T13:11:11;24.40;43.00
10411;DHT22;5251;52.112;8.606;2023-06-04T13:13:38;24.40;41.40
10411;DHT22;5251;52.112;8.606;2023-06-04T13:16:04;24.40;42.70
10411;DHT22;5251;52.112;8.606;2023-06-04T13:18:29;24.40;41.80
10411;DHT22;5251;52.112;8.606;2023-06-04T13:20:55;24.40;43.40
10411;DHT22;5251;52.112;8.606;2023-06-04T13:23:22;24.40;42.90
10411;DHT22;5251;52.112;8.606;2023-06-04T13:25:47;24.50;43.00
10411;DHT22;5251;52.112;8.606;2023-06-04T13:28:13;24.50;44.80
10411;DHT22;5251;52.112;8.606;2023-06-04T13:30:39;24.60;44.80
10411;DHT22;5251;52.112;8.606;2023-06-04T13:33:05;24.60;44.90
10411;DHT22;5251;52.112;8.606;2023-06-04T13:35:31;24.70;43.50
10411;DHT22;5251;52.112;8.606;2023-06-04T13:37:57;24.70;44.00
10411;DHT22;5251;52.112;8.606;2023-06-04T13:40:22;24.70;44.30
10411;DHT22;5251;52.112;8.606;2023-06-04T13:42:48;24.70;44.70
10411;DHT22;5251;52.112;8.606;2023-06-04T13:45:14;24.80;45.80
10411;DHT22;5251;52.112;8.606;2023-06-04T13:47:42;24.80;43.20
10411;DHT22;5251;52.112;8.606;2023-06-04T13:50:08;24.80;44.10
10411;DHT22;5251;52.112;8.606;2023-06-04T13:52:34;24.80;42.40
10411;DHT22;5251;52.112;8.606;2023-06-04T13:54:59;24.80;43.20
10411;DHT22;5251;52.112;8.606;2023-06-04T13:57:25;24.80;46.00
10411;DHT22;5251;52.112;8.606;2023-06-04T13:59:51;24.90;46.50
10411;DHT22;5251;52.112;8.606;2023-06-04T14:02:17;24.80;43.60
10411;DHT22;5251;52.112;8.606;2023-06-04T14:04:42;24.90;43.00
10411;DHT22;5251;52.112;8.606;2023-06-04T14:07:08;24.90;43.40
10411;DHT22;5251;52.112;8.606;2023-06-04T14:09:34;24.90;42.50
10411;DHT22;5251;52.112;8.606;2023-06-04T14:12:01;24.90;43.30
10411;DHT22;5251;52.112;8.606;2023-06-04T14:14:27;25.00;44.50
10411;DHT22;5251;52.112;8.606;2023-06-04T14:16:54;25.00;42.40
10411;DHT22;5251;52.112;8.606;2023-06-04T14:19:21;25.00;43.00
10411;DHT22;5251;52.112;8.606;2023-06-04T14:21:46;25.00;43.40
10411;DHT22;5251;52.112;8.606;2023-06-04T14:24:12;25.10;41.90
10411;DHT22;5251;52.112;8.606;2023-06-04T14:26:37;25.00;40.80
10411;DHT22;5251;52.112;8.606;2023-06-04T14:29:03;25.00;40.80
10411;DHT22;5251;52.112;8.606;2023-06-04T14:31:29;25.10;40.90
10411;DHT22;5251;52.112;8.606;2023-06-04T14:33:54;25.10;43.40
10411;DHT22;5251;52.112;8.606;2023-06-04T14:36:20;25.10;43.00
10411;DHT22;5251;52.112;8.606;2023-06-04T14:38:46;25.10;43.40
10411;DHT22;5251;52.112;8.606;2023-06-04T14:41:14;25.10;43.40
10411;DHT22;5251;52.112;8.606;2023-06-04T14:43:39;25.10;43.00
10411;DHT22;5251;52.112;8.606;2023-06-04T14:46:05;25.10;43.40
10411;DHT22;5251;52.112;8.606;2023-06-04T14:48:31;25.20;44.10
10411;DHT22;5251;52.112;8.606;2023-06-04T14:50:56;25.20;43.30
10411;DHT22;5251;52.112;8.606;2023-06-04T14:53:23;25.20;43.50
10411;DHT22;5251;52.112;8.606;2023-06-04T14:55:49;25.20;43.30
10411;DHT22;5251;52.112;8.606;2023-06-04T14:58:15;25.20;43.50
10411;DHT22;5251;52.112;8.606;2023-06-04T15:00:44;25.20;43.00
10411;DHT22;5251;52.112;8.606;2023-06-04T15:03:10;25.20;42.10
10411;DHT22;5251;52.112;8.606;2023-06-04T15:05:36;25.20;43.30
10411;DHT22;5251;52.112;8.606;2023-06-04T15:08:02;25.20;41.80
10411;DHT22;5251;52.112;8.606;2023-06-04T15:10:28;25.20;43.20
10411;DHT22;5251;52.112;8.606;2023-06-04T15:12:54;25.20;44.20
10411;DHT22;5251;52.112;8.606;2023-06-04T15:15:20;25.20;43.70
10411;DHT22;5251;52.112;8.606;2023-06-04T15:17:45;25.20;44.10
10411;DHT22;5251;52.112;8.606;2023-06-04T15:20:11;25.20;43.50
10411;DHT22;5251;52.112;8.606;2023-06-04T15:22:37;25.20;44.50
10411;DHT22;5251;52.112;8.606;2023-06-04T15:25:02;25.20;45.10
10411;DHT22;5251;52.112;8.606;2023-06-04T15:27:28;25.20;43.50
10411;DHT22;5251;52.112;8.606;2023-06-04T15:29:54;25.20;43.10
10411;DHT22;5251;52.112;8.606;2023-06-04T15:32:20;25.20;42.50
10411;DHT22;5251;52.112;8.606;2023-06-04T15:34:47;25.20;43.10
10411;DHT22;5251;52.112;8.606;2023-06-04T15:37:12;25.20;44.30
10411;DHT22;5251;52.112;8.606;2023-06-04T15:39:38;25.20;44.60
10411;DHT22;5251;52.112;8.606;2023-06-04T15:42:04;25.20;44.70
10411;DHT22;5251;52.112;8.606;2023-06-04T15:44:29;25.20;43.50
10411;DHT22;5251;52.112;8.606;2023-06-04T15:46:55;25.20;42.80
10411;DHT22;5251;52.112;8.606;2023-06-04T15:49:20;25.20;42.10
10411;DHT22;5251;52.112;8.606;2023-06-04T15:51:46;25.20;41.90